Terminal Aerodrome Forecast
Issued by NWS Twin Cities, MN

Home | Current Version | Previous Version | Text Only | Print | Product List | Glossary On
Versions: 1 2 3 4 5 6 7 8 9 10 11 12 13 14 15
000
FTUS43 KMPX 010520
TAFSTC
TAF
KSTC 010520Z 0106/0206 VRB03KT P6SM SCT070
     FM011500 24008KT P6SM SCT100
     FM020000 VRB03KT P6SM SCT080 PROB30 0200/0204 5SM TSRA
      OVC060CB=

USA.gov is the U.S. government's official web portal to all federal, state and local government web resources and services.